Manchester, Maine
Current Conditions -  °F | °C
As of 8:53 PM on Saturday 22 Nov 2014 (Local Time) from KAUG Reporting Station
Broken Clouds Broken Clouds  
Wind Chill: 28°   Ceiling: 8000
Heat Index: 34°   Visibility: 10mi
Dew Point:   Wind: 7mph
Humidity: 35%   Direction: NA
Pressure: 29.94"   Gusts: NA
Location:  44.32°N, 69.86°W
Report Text: KAUG 230153Z AUTO VRB06KT 10SM FEW060 BKN080 01/M13 A2994 RMK AO2 SLP143 T00111128
Loading
Personal Weather Stations






























Interactive Weather Map New forecast layout! Learn more

10-Day Weather Forecast

Advertisements
Track Severe Weather on mobile